Time;durP1;ratioP1;P1;durP2;ratioP2;P2;SDS_P1;SDS_P2;PMS_P1;PMS_P2;Temp;Humidity;BMP_temperature;BMP_pressure;BME280_temperature;BME280_humidity;BME280_pressure;Samples;Min_cycle;Max_cycle;Signal;HPM_P1;HPM_P2
2022/12/07 14:04:31;;;;;;;8.82;3.20;;;;;;;9.27;100.00;101116.03;5107593;27;20146;-71
2022/12/07 14:06:58;;;;;;;15.80;3.47;;;;;;;10.37;100.00;101110.25;5111208;27;20158;-73
2022/12/07 14:09:26;;;;;;;7.95;3.03;;;;;;;10.17;100.00;101109.72;5110655;27;20047;-74
2022/12/07 14:11:55;;;;;;;11.63;3.55;;;;;;;9.62;100.00;101090.72;5109006;27;20198;-73
2022/12/07 14:14:30;;;;;;;3.50;1.88;;;;;;;9.36;100.00;101107.44;5108752;27;20554;-72
2022/12/07 14:17:18;;;;;;;20.25;4.15;;;;;;;9.87;100.00;101098.03;5108601;27;20055;-72
2022/12/07 14:19:57;;;;;;;14.00;3.83;;;;;;;9.02;100.00;101090.13;5104200;27;20843;-73
2022/12/07 14:22:39;;;;;;;9.75;3.60;;;;;;;8.71;100.00;101087.00;5105610;27;20146;-73
2022/12/07 14:25:18;;;;;;;17.10;4.82;;;;;;;8.20;100.00;101092.19;5107019;27;20101;-69
2022/12/07 14:27:55;;;;;;;18.40;5.07;;;;;;;8.30;100.00;101091.56;5098104;27;20058;-71
2022/12/07 14:30:24;;;;;;;11.70;4.13;;;;;;;8.20;100.00;101085.88;5106781;27;20058;-72
2022/12/07 14:32:54;;;;;;;19.02;4.50;;;;;;;7.68;100.00;101087.47;5103781;27;20047;-70
2022/12/07 14:35:21;;;;;;;9.23;3.53;;;;;;;7.18;100.00;101087.75;5106970;27;20062;-71
2022/12/07 14:37:49;;;;;;;11.52;3.70;;;;;;;6.89;100.00;101087.59;5107242;27;20054;-73
2022/12/07 14:40:28;;;;;;;13.00;4.93;;;;;;;6.64;100.00;101078.84;5102726;27;20055;-71
2022/12/07 14:43:16;;;;;;;12.18;4.43;;;;;;;6.48;100.00;101077.31;5105402;27;20043;-71
2022/12/07 14:45:43;;;;;;;1.50;1.40;;;;;;;6.27;100.00;101079.59;5106163;28;20135;-73
2022/12/07 14:48:16;;;;;;;11.82;4.30;;;;;;;6.20;100.00;101076.69;5108918;27;20506;-75
2022/12/07 14:51:04;;;;;;;16.92;4.38;;;;;;;6.07;100.00;101078.00;5101139;27;20051;-75
2022/12/07 14:53:52;;;;;;;14.73;4.97;;;;;;;5.95;100.00;101067.91;5100939;27;20485;-75
2022/12/07 14:56:24;;;;;;;14.45;4.75;;;;;;;5.88;100.00;101069.69;5106616;27;20051;-71
2022/12/07 14:58:50;;;;;;;14.68;5.07;;;;;;;5.82;100.00;101071.13;5107684;27;20141;-74
2022/12/07 15:01:17;;;;;;;15.57;4.93;;;;;;;5.75;100.00;101077.22;5104609;27;20051;-74
2022/12/07 15:03:43;;;;;;;17.60;5.80;;;;;;;5.71;100.00;101070.84;5103389;28;20043;-72
2022/12/07 15:06:14;;;;;;;11.43;4.07;;;;;;;5.65;100.00;101079.69;5104674;27;20055;-73
2022/12/07 15:08:41;;;;;;;21.30;6.75;;;;;;;5.69;100.00;101072.34;5102153;27;20043;-72
2022/12/07 15:11:13;;;;;;;20.10;6.10;;;;;;;5.64;100.00;101075.38;5105641;27;20054;-72
2022/12/07 15:16:24;;;;;;;17.45;6.18;;;;;;;5.57;100.00;101064.22;5089377;27;20050;-73
2022/12/07 15:18:51;;;;;;;11.32;4.40;;;;;;;5.50;100.00;101064.03;5095924;27;20044;-71
2022/12/07 15:21:38;;;;;;;19.15;5.78;;;;;;;5.47;100.00;101062.00;5088489;28;20055;-71
2022/12/07 15:24:05;;;;;;;17.73;6.53;;;;;;;5.46;100.00;101063.16;5091532;28;20067;-71
2022/12/07 15:26:31;;;;;;;18.83;5.80;;;;;;;5.33;100.00;101049.53;5090033;27;20048;-73
2022/12/07 15:28:58;;;;;;;15.82;5.85;;;;;;;5.33;100.00;101045.97;5091636;28;20043;-74
2022/12/07 15:31:25;;;;;;;18.38;6.32;;;;;;;5.34;100.00;101053.84;5088539;27;20054;-74
2022/12/07 15:34:11;;;;;;;16.42;5.70;;;;;;;5.32;100.00;101047.94;5086343;28;20097;-71
2022/12/07 15:36:38;;;;;;;20.45;6.15;;;;;;;5.32;100.00;101058.09;5089637;27;20054;-71
2022/12/07 15:39:04;;;;;;;17.92;5.85;;;;;;;5.30;100.00;101054.94;5091212;28;20064;-71
2022/12/07 15:41:40;;;;;;;24.75;7.07;;;;;;;5.30;100.00;101057.69;5096280;27;20061;-71
2022/12/07 15:46:56;;;;;;;13.13;5.03;;;;;;;5.29;100.00;101047.84;5095256;28;20051;-73
2022/12/07 15:49:23;;;;;;;25.33;6.45;;;;;;;5.23;100.00;101044.56;5095119;28;20052;-71
2022/12/07 15:51:49;;;;;;;16.17;4.93;;;;;;;5.25;100.00;101046.94;5085408;27;20052;-71
2022/12/07 15:54:22;;;;;;;22.23;5.93;;;;;;;5.25;100.00;101056.00;5095561;28;20090;-73
2022/12/07 15:56:49;;;;;;;15.10;5.03;;;;;;;5.23;100.00;101055.53;5093517;27;20063;-71
2022/12/07 15:59:16;;;;;;;22.75;7.78;;;;;;;5.27;100.00;101056.41;5094671;28;20047;-71
2022/12/07 16:01:43;;;;;;;25.58;7.43;;;;;;;5.30;100.00;101057.69;5091478;28;20043;-71
2022/12/07 16:04:10;;;;;;;19.40;7.30;;;;;;;5.27;100.00;101053.66;5089842;28;20096;-72
2022/12/07 16:06:37;;;;;;;18.98;8.30;;;;;;;5.28;100.00;101047.06;5088548;27;20600;-71
2022/12/07 16:09:04;;;;;;;24.73;7.75;;;;;;;5.26;100.00;101060.31;5084783;28;20052;-73
2022/12/07 16:11:31;;;;;;;21.83;7.55;;;;;;;5.32;100.00;101047.13;5087227;28;20048;-72
2022/12/07 16:13:57;;;;;;;18.25;7.07;;;;;;;5.30;100.00;101050.22;5088807;27;20574;-70
2022/12/07 16:16:25;;;;;;;19.80;6.72;;;;;;;5.29;100.00;101042.34;5089757;27;20058;-73
2022/12/07 16:18:52;;;;;;;15.10;6.20;;;;;;;5.26;100.00;101030.13;5091990;27;20744;-71
2022/12/07 16:21:19;;;;;;;22.95;7.05;;;;;;;5.32;100.00;101039.69;5090658;28;20056;-72
2022/12/07 16:23:50;;;;;;;17.65;6.05;;;;;;;5.29;100.00;101034.91;5088753;28;20503;-72
2022/12/07 16:26:20;;;;;;;14.77;3.88;;;;;;;5.28;100.00;101036.06;5085198;28;20058;-73
2022/12/07 16:28:52;;;;;;;17.73;7.00;;;;;;;5.31;100.00;101029.09;5095023;27;20070;-72
2022/12/07 16:31:21;;;;;;;15.27;6.97;;;;;;;5.33;100.00;101033.06;5085971;27;20151;-71
2022/12/07 16:33:49;;;;;;;17.27;6.80;;;;;;;5.33;100.00;101037.75;5080971;27;20035;-73
2022/12/07 16:36:16;;;;;;;23.08;7.50;;;;;;;5.39;100.00;101036.31;5089094;28;20051;-73
2022/12/07 16:39:03;;;;;;;20.42;8.35;;;;;;;5.38;100.00;101032.00;5083098;28;20180;-73
2022/12/07 16:41:30;;;;;;;16.95;5.45;;;;;;;5.37;100.00;101033.16;5087749;27;20054;-72
2022/12/07 16:43:56;;;;;;;19.35;7.22;;;;;;;5.43;100.00;101030.94;5083577;27;20047;-73
2022/12/07 16:46:23;;;;;;;15.93;6.18;;;;;;;5.43;100.00;101030.94;5081909;28;20066;-72
2022/12/07 16:48:49;;;;;;;23.25;8.15;;;;;;;5.46;100.00;101035.72;5086884;28;20047;-73
2022/12/07 16:51:16;;;;;;;21.38;7.88;;;;;;;5.44;100.00;101028.63;5087011;27;20051;-73
2022/12/07 16:53:43;;;;;;;17.25;6.20;;;;;;;5.41;100.00;101029.31;5087852;28;20043;-72
2022/12/07 16:56:11;;;;;;;17.73;8.00;;;;;;;5.50;100.00;101031.09;5084125;27;20060;-72
2022/12/07 16:58:38;;;;;;;28.65;8.40;;;;;;;5.50;100.00;101022.88;5083397;28;20051;-71
2022/12/07 17:01:13;;;;;;;19.65;8.35;;;;;;;5.47;100.00;101016.94;5085646;28;20059;-72
2022/12/07 17:03:40;;;;;;;20.42;7.82;;;;;;;5.47;100.00;101012.59;5085313;28;20131;-73
2022/12/07 17:06:13;;;;;;;17.60;6.65;;;;;;;5.46;100.00;101022.00;5087114;28;20055;-75
2022/12/07 17:08:40;;;;;;;18.13;7.38;;;;;;;5.47;100.00;101009.84;5088372;28;20043;-73
2022/12/07 17:11:14;;;;;;;6.47;2.45;;;;;;;5.47;100.00;101004.38;5089442;28;20573;-71
2022/12/07 17:16:27;;;;;;;15.95;6.70;;;;;;;5.53;100.00;101008.44;5085147;28;20059;-74
2022/12/07 17:18:54;;;;;;;14.75;4.55;;;;;;;5.51;100.00;100997.00;5094786;27;20079;-71
2022/12/07 17:21:20;;;;;;;23.77;5.80;;;;;;;5.52;100.00;100995.84;5086988;28;20609;-72
2022/12/07 17:23:47;;;;;;;18.70;6.93;;;;;;;5.47;100.00;100988.72;5085598;28;20098;-71
2022/12/07 17:26:17;;;;;;;17.90;6.63;;;;;;;5.41;100.00;100996.41;5087168;28;20058;-71
2022/12/07 17:28:44;;;;;;;3.70;2.60;;;;;;;5.34;100.00;100996.22;5088755;28;20085;-73
2022/12/07 17:31:14;;;;;;;11.60;3.47;;;;;;;5.19;100.00;100991.56;5086144;28;20090;-73
2022/12/07 17:33:41;;;;;;;7.65;3.40;;;;;;;5.08;100.00;100986.94;5081415;27;20051;-71
2022/12/07 17:36:18;;;;;;;1.35;1.02;;;;;;;4.99;100.00;100989.06;5085436;28;20051;-73
2022/12/07 17:38:47;;;;;;;14.75;3.33;;;;;;;4.97;100.00;100986.66;5089288;28;20047;-74
2022/12/07 17:44:08;;;;;;;10.15;3.35;;;;;;;4.79;100.00;100985.44;5084948;28;20055;-71
2022/12/07 17:46:36;;;;;;;10.07;3.85;;;;;;;4.74;100.00;100979.41;5089662;27;20047;-73
2022/12/07 17:49:03;;;;;;;13.60;6.15;;;;;;;4.79;100.00;100979.13;5090437;27;20058;-74
2022/12/07 17:54:15;;;;;;;17.08;5.22;;;;;;;4.73;100.00;100975.88;5089215;28;20040;-71
2022/12/07 17:56:42;;;;;;;15.23;6.22;;;;;;;4.73;100.00;100975.88;5089315;28;20047;-71
2022/12/07 17:59:08;;;;;;;14.35;5.40;;;;;;;4.67;100.00;100969.06;5085355;28;20141;-72
2022/12/07 18:01:35;;;;;;;17.15;5.85;;;;;;;4.70;100.00;100975.78;5085844;28;20078;-72
2022/12/07 18:04:02;;;;;;;15.85;6.15;;;;;;;4.70;100.00;100973.03;5087396;28;20106;-73
2022/12/07 18:06:29;;;;;;;15.45;5.35;;;;;;;4.57;100.00;100963.28;5088924;28;20047;-73
2022/12/07 18:08:56;;;;;;;18.33;7.28;;;;;;;4.67;100.00;100977.28;5085503;28;20260;-72
2022/12/07 18:11:23;;;;;;;16.88;6.70;;;;;;;4.70;100.00;100970.31;5088012;28;20052;-74
2022/12/07 18:13:50;;;;;;;16.00;6.88;;;;;;;4.68;100.00;100967.91;5087283;28;20044;-72
2022/12/07 18:16:19;;;;;;;20.45;7.05;;;;;;;4.74;100.00;100972.00;5087495;28;20047;-72
2022/12/07 18:18:47;;;;;;;18.52;6.85;;;;;;;4.75;100.00;100967.28;5088014;28;20836;-74
2022/12/07 18:21:21;;;;;;;25.90;8.30;;;;;;;4.91;100.00;100970.84;5087776;28;20861;-71
2022/12/07 18:23:50;;;;;;;24.25;8.02;;;;;;;4.84;100.00;100960.50;5086165;28;20770;-74
2022/12/07 18:26:18;;;;;;;25.77;8.30;;;;;;;4.85;100.00;100967.56;5087040;28;20055;-72
2022/12/07 18:28:45;;;;;;;22.60;8.10;;;;;;;4.91;100.00;100963.44;5088342;28;20043;-72
2022/12/07 18:31:13;;;;;;;21.10;8.95;;;;;;;4.92;100.00;100961.47;5089528;28;20058;-72
2022/12/07 18:33:42;;;;;;;16.35;8.15;;;;;;;4.91;100.00;100948.91;5087422;28;20067;-72
2022/12/07 18:36:10;;;;;;;18.63;7.80;;;;;;;4.90;100.00;100953.59;5087651;28;20055;-72
2022/12/07 18:38:37;;;;;;;16.30;7.43;;;;;;;4.96;100.00;100956.84;5082100;28;20043;-71
2022/12/07 18:41:06;;;;;;;14.20;7.55;;;;;;;4.94;100.00;100954.50;5088126;28;20059;-72
2022/12/07 18:43:33;;;;;;;16.50;6.28;;;;;;;4.93;100.00;100952.88;5082533;28;20049;-72
2022/12/07 18:45:59;;;;;;;17.90;7.63;;;;;;;4.95;100.00;100955.28;5089822;28;20040;-73
2022/12/07 18:48:26;;;;;;;19.15;8.40;;;;;;;4.99;100.00;100951.47;5091275;28;20139;-71
2022/12/07 18:51:02;;;;;;;20.50;7.53;;;;;;;4.95;100.00;100947.84;5090609;28;20051;-72
2022/12/07 18:53:29;;;;;;;18.00;7.18;;;;;;;4.99;100.00;100948.72;5089118;28;20039;-71
2022/12/07 18:56:14;;;;;;;15.77;6.90;;;;;;;5.03;100.00;100948.84;5090917;27;20047;-72
2022/12/07 19:01:26;;;;;;;17.25;7.82;;;;;;;5.07;100.00;100942.25;5091351;28;20054;-71
2022/12/07 19:03:52;;;;;;;17.45;8.00;;;;;;;5.09;100.00;100945.47;5090958;27;20071;-72
2022/12/07 19:06:19;;;;;;;16.58;6.60;;;;;;;5.12;100.00;100954.91;5091921;28;20044;-72
2022/12/07 19:08:45;;;;;;;18.38;5.82;;;;;;;5.12;100.00;100961.22;5090884;27;20047;-73
2022/12/07 19:14:10;;;;;;;15.77;5.85;;;;;;;5.14;100.00;100960.84;5092469;28;20047;-71
2022/12/07 19:16:37;;;;;;;13.93;6.20;;;;;;;5.12;100.00;100960.41;5083775;27;20043;-72
2022/12/07 19:19:04;;;;;;;12.68;5.10;;;;;;;5.07;100.00;100955.97;5089287;27;20571;-71
2022/12/07 19:21:30;;;;;;;7.10;3.30;;;;;;;5.04;100.00;100956.69;5089914;28;20053;-73
2022/12/07 19:23:57;;;;;;;14.48;3.97;;;;;;;5.01;100.00;100953.88;5079112;28;20400;-72
2022/12/07 19:26:23;;;;;;;11.63;3.92;;;;;;;4.94;100.00;100951.75;5091889;27;20055;-72
2022/12/07 19:28:50;;;;;;;8.77;3.95;;;;;;;4.90;100.00;100941.84;5086682;28;20086;-70
2022/12/07 19:31:17;;;;;;;14.20;5.93;;;;;;;4.86;100.00;100941.75;5089209;28;20056;-73
2022/12/07 19:33:43;;;;;;;12.07;4.75;;;;;;;4.86;100.00;100947.22;5086054;27;20844;-71
2022/12/07 19:36:10;;;;;;;14.98;6.20;;;;;;;4.88;100.00;100938.66;5093509;28;20054;-73
2022/12/07 19:38:36;;;;;;;18.98;7.90;;;;;;;4.84;100.00;100938.56;5091678;27;20058;-73
2022/12/07 19:41:32;;;;;;;18.85;7.32;;;;;;;4.79;100.00;100933.34;5091446;27;20048;-71
2022/12/07 19:43:55;;;;;;;15.70;5.82;;;;;;;4.66;100.00;100920.88;5087506;27;20122;-71
2022/12/07 19:46:22;;;;;;;26.80;13.35;;;;;;;4.64;100.00;100914.97;5085034;28;20055;-73
2022/12/07 19:48:48;;;;;;;23.00;11.70;;;;;;;4.59;100.00;100911.69;5087376;28;20937;-72
2022/12/07 19:51:15;;;;;;;23.92;11.18;;;;;;;4.60;100.00;100921.50;5088423;27;20050;-72
2022/12/07 19:53:41;;;;;;;31.05;14.07;;;;;;;4.59;100.00;100914.44;5090818;28;20044;-74
2022/12/07 19:56:16;;;;;;;33.53;16.25;;;;;;;4.54;100.00;100912.72;5090033;27;20056;-70
2022/12/07 19:58:43;;;;;;;37.38;17.58;;;;;;;4.58;100.00;100913.63;5091044;28;20519;-72
2022/12/07 20:01:09;;;;;;;41.22;18.33;;;;;;;4.52;100.00;100912.28;5090341;28;20043;-72
2022/12/07 20:03:37;;;;;;;28.85;13.68;;;;;;;4.57;100.00;100906.56;5089050;28;20475;-71
2022/12/07 20:06:12;;;;;;;26.95;13.13;;;;;;;4.52;100.00;100898.56;5088380;27;20862;-71
2022/12/07 20:08:39;;;;;;;25.80;12.13;;;;;;;4.49;100.00;100898.50;5086975;28;20051;-72
2022/12/07 20:13:52;;;;;;;26.80;11.90;;;;;;;4.53;100.00;100891.16;5090952;28;20057;-69
2022/12/07 20:16:19;;;;;;;23.88;11.43;;;;;;;4.49;100.00;100891.06;5086934;28;20047;-72
2022/12/07 20:18:46;;;;;;;28.98;10.40;;;;;;;4.47;100.00;100890.63;5087952;27;20051;-73
2022/12/07 20:21:21;;;;;;;;;;;;;;;4.43;100.00;100897.97;5093854;27;20059;-71
2022/12/07 20:23:47;;;;;;;19.42;9.07;;;;;;;4.47;100.00;100884.34;5087340;27;20828;-72
2022/12/07 20:26:14;;;;;;;23.45;9.93;;;;;;;4.46;100.00;100883.53;5085985;28;20051;-72
2022/12/07 20:28:45;;;;;;;17.52;7.75;;;;;;;4.47;100.00;100889.81;5087788;27;20047;-73
2022/12/07 20:31:14;;;;;;;18.70;6.75;;;;;;;4.43;100.00;100892.50;5087681;28;20051;-73
2022/12/07 20:33:45;;;;;;;20.52;8.90;;;;;;;4.41;100.00;100888.47;5090865;27;20047;-71
2022/12/07 20:36:14;;;;;;;28.67;10.25;;;;;;;4.43;100.00;100884.28;5087798;28;20925;-73
2022/12/07 20:38:41;;;;;;;20.38;9.55;;;;;;;4.44;100.00;100883.13;5088475;27;20166;-72
2022/12/07 20:43:56;;;;;;;25.00;12.05;;;;;;;4.46;100.00;100875.31;5088195;28;20055;-72
2022/12/07 20:46:22;;;;;;;28.23;11.30;;;;;;;4.44;100.00;100869.41;5089742;28;20924;-72
2022/12/07 20:48:49;;;;;;;27.90;12.50;;;;;;;4.46;100.00;100869.84;5085167;27;20124;-70
2022/12/07 20:51:16;;;;;;;16.95;6.13;;;;;;;4.41;100.00;100864.63;5087894;27;20039;-69
2022/12/07 20:53:43;;;;;;;26.67;10.45;;;;;;;4.42;100.00;100860.75;5087901;28;20861;-71
2022/12/07 20:56:23;;;;;;;28.67;11.80;;;;;;;4.44;100.00;100852.97;5090713;28;20055;-75
2022/12/07 20:58:50;;;;;;;24.98;12.63;;;;;;;4.46;100.00;100852.63;5078770;28;20059;-73
2022/12/07 21:01:16;;;;;;;28.17;13.43;;;;;;;4.44;100.00;100833.78;5088650;27;20858;-71
2022/12/07 21:03:43;;;;;;;33.28;15.07;;;;;;;4.46;100.00;100845.19;5087612;27;20047;-71
2022/12/07 21:06:13;;;;;;;10.57;5.82;;;;;;;4.45;100.00;100843.59;5088983;28;20097;-72
2022/12/07 21:08:44;;;;;;;34.13;16.52;;;;;;;4.50;100.00;100846.09;5089737;27;20058;-73
2022/12/07 21:11:12;;;;;;;14.27;6.15;;;;;;;4.44;100.00;100855.72;5090778;27;20418;-72
2022/12/07 21:13:39;;;;;;;14.07;5.32;;;;;;;4.48;100.00;100858.53;5084586;28;20917;-72
2022/12/07 21:16:10;;;;;;;33.95;15.43;;;;;;;4.55;100.00;100845.00;5083741;28;20058;-72
2022/12/07 21:18:38;;;;;;;26.98;15.13;;;;;;;4.53;100.00;100842.63;5090012;27;20055;-71
2022/12/07 21:21:09;;;;;;;21.85;10.48;;;;;;;4.51;100.00;100850.41;5085313;28;20047;-71
2022/12/07 21:23:36;;;;;;;27.55;14.38;;;;;;;4.55;100.00;100843.06;5088157;28;20172;-71
2022/12/07 21:26:14;;;;;;;15.90;6.60;;;;;;;4.52;100.00;100840.25;5089716;28;20044;-71
2022/12/07 21:28:41;;;;;;;19.15;9.63;;;;;;;4.55;100.00;100845.00;5086867;27;20416;-71
2022/12/07 21:31:07;;;;;;;21.67;8.40;;;;;;;4.55;100.00;100848.56;5084582;28;20066;-74
2022/12/07 21:33:40;;;;;;;17.63;9.10;;;;;;;4.51;100.00;100841.38;5085710;28;20815;-72
2022/12/07 21:36:09;;;;;;;13.75;6.38;;;;;;;4.55;100.00;100843.06;5087383;27;20040;-73
2022/12/07 21:38:35;;;;;;;36.67;16.83;;;;;;;4.61;100.00;100846.34;5087715;27;20047;-72
2022/12/07 21:41:13;;;;;;;31.02;15.75;;;;;;;4.58;100.00;100847.84;5086115;28;20051;-71
2022/12/07 21:43:40;;;;;;;38.75;18.30;;;;;;;4.60;100.00;100842.81;5080886;28;20051;-73
2022/12/07 21:46:07;;;;;;;35.35;16.98;;;;;;;4.64;100.00;100849.19;5087511;28;20051;-70
2022/12/07 21:48:33;;;;;;;17.65;8.52;;;;;;;4.56;100.00;100833.69;5084689;28;20101;-71
2022/12/07 21:51:27;;;;;;;17.73;9.27;;;;;;;4.58;100.00;100834.16;5089608;28;20051;-71
2022/12/07 21:53:57;;;;;;;14.13;8.02;;;;;;;4.63;100.00;100831.13;5087299;27;20055;-71
2022/12/07 21:56:44;;;;;;;6.43;3.58;;;;;;;4.64;100.00;100827.25;5087975;27;20062;-71
2022/12/07 21:59:13;;;;;;;35.40;17.00;;;;;;;4.71;100.00;100829.34;5087920;27;20052;-71
2022/12/07 22:01:44;;;;;;;35.20;17.67;;;;;;;4.72;100.00;100830.94;5089377;28;20074;-71
2022/12/07 22:04:15;;;;;;;29.25;15.98;;;;;;;4.73;100.00;100825.09;5087943;28;20062;-72
2022/12/07 22:06:43;;;;;;;22.88;10.95;;;;;;;4.68;100.00;100830.88;5076626;28;20039;-73
2022/12/07 22:09:10;;;;;;;6.68;3.45;;;;;;;4.67;100.00;100829.28;5090769;28;20047;-71
2022/12/07 22:11:36;;;;;;;17.08;8.32;;;;;;;4.70;100.00;100823.06;5088753;28;20052;-71
2022/12/07 22:16:50;;;;;;;25.35;12.52;;;;;;;4.72;100.00;100818.03;5087937;28;20043;-70
2022/12/07 22:19:16;;;;;;;16.92;8.95;;;;;;;4.70;100.00;100817.59;5089633;28;20040;-71
2022/12/07 22:21:43;;;;;;;4.43;2.95;;;;;;;4.72;100.00;100820.78;5087312;28;20079;-72
2022/12/07 22:24:12;;;;;;;10.55;4.45;;;;;;;4.72;100.00;100826.25;5081098;28;20209;-73
2022/12/07 22:26:40;;;;;;;25.02;10.95;;;;;;;4.75;100.00;100822.00;5091676;27;20133;-73
2022/12/07 22:29:06;;;;;;;13.48;6.78;;;;;;;4.73;100.00;100821.59;5092681;28;20868;-72
2022/12/07 22:31:33;;;;;;;29.73;15.23;;;;;;;4.77;100.00;100817.78;5090980;27;20056;-71
2022/12/07 22:34:00;;;;;;;9.98;4.57;;;;;;;4.71;100.00;100807.44;5091404;27;20764;-72
2022/12/07 22:36:28;;;;;;;10.82;4.65;;;;;;;4.67;100.00;100793.66;5090663;28;20051;-73
2022/12/07 22:38:55;;;;;;;6.55;3.97;;;;;;;4.73;100.00;100805.13;5089979;28;20128;-74
2022/12/07 22:41:27;;;;;;;23.30;12.27;;;;;;;4.76;100.00;100799.72;5084820;27;20052;-71
2022/12/07 22:43:54;;;;;;;9.30;5.00;;;;;;;4.78;100.00;100800.19;5087148;28;20377;-72
2022/12/07 22:46:22;;;;;;;15.52;6.82;;;;;;;4.71;100.00;100797.28;5090354;27;20666;-72
2022/12/07 22:48:49;;;;;;;10.15;4.75;;;;;;;4.74;100.00;100801.25;5091802;28;20048;-73
2022/12/07 22:51:25;;;;;;;10.68;4.70;;;;;;;4.74;100.00;100791.09;5092183;27;20040;-73
2022/12/07 22:53:53;;;;;;;14.82;5.80;;;;;;;4.70;100.00;100789.41;5088854;28;20858;-73
2022/12/07 22:56:20;;;;;;;6.40;2.72;;;;;;;4.70;100.00;100784.69;5090628;28;20058;-71
2022/12/07 22:58:47;;;;;;;10.73;5.55;;;;;;;4.68;100.00;100775.25;5090306;28;20050;-70
2022/12/07 23:01:16;;;;;;;7.30;4.22;;;;;;;4.67;100.00;100774.47;5085110;27;20090;-72
2022/12/07 23:03:43;;;;;;;14.30;4.25;;;;;;;4.64;100.00;100775.19;5092798;28;20058;-72
2022/12/07 23:06:14;;;;;;;30.52;14.63;;;;;;;4.68;100.00;100761.53;5091896;28;20050;-73
2022/12/07 23:08:40;;;;;;;26.58;13.20;;;;;;;4.60;100.00;100757.88;5091004;28;20043;-73
2022/12/07 23:11:09;;;;;;;4.97;2.85;;;;;;;4.59;100.00;100761.75;5092264;27;20057;-71
2022/12/07 23:13:36;;;;;;;12.93;6.30;;;;;;;4.62;100.00;100766.50;5087466;28;20793;-72
2022/12/07 23:16:12;;;;;;;28.85;14.65;;;;;;;4.62;100.00;100757.47;5091524;28;20051;-72
2022/12/07 23:18:40;;;;;;;32.20;14.98;;;;;;;4.61;100.00;100750.41;5091076;27;20052;-71
2022/12/07 23:21:08;;;;;;;34.85;16.27;;;;;;;4.66;100.00;100748.19;5091266;28;20055;-72
2022/12/07 23:23:34;;;;;;;32.00;13.55;;;;;;;4.63;100.00;100750.88;5087653;28;20055;-73
2022/12/07 23:26:06;;;;;;;10.63;5.90;;;;;;;4.61;100.00;100751.22;5088207;28;20090;-71
2022/12/07 23:28:33;;;;;;;27.80;13.85;;;;;;;4.61;100.00;100747.69;5082789;27;20798;-72
2022/12/07 23:31:11;;;;;;;33.13;15.65;;;;;;;4.63;100.00;100750.88;5082315;28;20529;-72
2022/12/07 23:33:38;;;;;;;35.63;14.93;;;;;;;4.61;100.00;100748.50;5087565;28;20047;-72
2022/12/07 23:36:14;;;;;;;29.90;14.60;;;;;;;4.62;100.00;100739.09;5088862;28;20051;-71
2022/12/07 23:38:41;;;;;;;20.08;9.30;;;;;;;4.59;100.00;100741.78;5091456;28;20044;-72
2022/12/07 23:41:13;;;;;;;30.30;14.35;;;;;;;4.59;100.00;100739.81;5094073;27;20059;-74
2022/12/07 23:43:41;;;;;;;21.92;9.85;;;;;;;4.59;100.00;100728.84;5092300;27;20047;-72
2022/12/07 23:46:14;;;;;;;19.58;6.63;;;;;;;4.53;100.00;100724.78;5084933;27;20044;-73
2022/12/07 23:48:41;;;;;;;10.05;4.63;;;;;;;4.56;100.00;100726.81;5084402;28;20083;-72
2022/12/07 23:51:08;;;;;;;7.82;2.28;;;;;;;4.57;100.00;100724.88;5091512;28;20056;-71
2022/12/07 23:53:37;;;;;;;25.15;10.35;;;;;;;4.56;100.00;100724.09;5089782;28;20048;-72
2022/12/07 23:56:04;;;;;;;8.38;3.65;;;;;;;4.56;100.00;100726.81;5092054;27;20048;-72
2022/12/07 23:58:31;;;;;;;5.35;2.53;;;;;;;4.52;100.00;100720.47;5086793;28;20812;-74
